createdAt,value
2018-02-09T00:00:37.908Z,123.53
2018-02-09T00:03:05.429Z,137.30
2018-02-09T00:05:32.995Z,132.50
2018-02-09T00:08:00.584Z,136.60
2018-02-09T00:10:28.134Z,130.67
2018-02-09T00:12:55.659Z,135.40
2018-02-09T00:15:23.207Z,131.13
2018-02-09T00:17:51.771Z,139.20
2018-02-09T00:20:20.118Z,125.30
2018-02-09T00:22:52.639Z,128.23
2018-02-09T00:25:20.195Z,126.20
2018-02-09T00:27:47.730Z,118.37
2018-02-09T00:30:15.304Z,129.83
2018-02-09T00:32:42.838Z,125.20
2018-02-09T00:35:11.158Z,130.30
2018-02-09T00:37:38.716Z,138.03
2018-02-09T00:40:06.386Z,135.23
2018-02-09T00:42:33.880Z,125.13
2018-02-09T00:45:01.457Z,127.47
2018-02-09T00:47:29.753Z,131.00
2018-02-09T00:49:57.291Z,131.40
2018-02-09T00:52:25.666Z,121.60
2018-02-09T00:54:53.220Z,140.50
2018-02-09T00:57:20.741Z,121.40
2018-02-09T00:59:49.270Z,129.77
2018-02-09T01:02:16.795Z,133.20
2018-02-09T01:04:45.106Z,132.37
2018-02-09T01:07:12.644Z,138.00
2018-02-09T01:09:41.019Z,134.50
2018-02-09T01:12:08.552Z,128.27
2018-02-09T01:14:36.124Z,127.50
2018-02-09T01:17:03.643Z,130.60
2018-02-09T01:19:31.182Z,133.47
2018-02-09T01:21:58.741Z,122.57
2018-02-09T01:24:26.283Z,127.70
2018-02-09T01:26:55.163Z,133.27
2018-02-09T01:29:22.711Z,128.33
2018-02-09T01:31:50.259Z,134.93
2018-02-09T01:34:17.784Z,122.47
2018-02-09T01:36:45.435Z,123.67
2018-02-09T01:39:12.959Z,133.53
2018-02-09T01:41:40.512Z,136.33
2018-02-09T01:44:08.031Z,133.97
2018-02-09T01:46:35.576Z,124.90
2018-02-09T01:49:03.099Z,121.03
2018-02-09T01:51:30.667Z,126.27
2018-02-09T01:53:58.186Z,132.40
2018-02-09T01:56:25.735Z,132.07
2018-02-09T01:58:54.028Z,130.80
2018-02-09T02:01:22.340Z,129.40
2018-02-09T02:03:49.956Z,128.73
2018-02-09T02:09:08.700Z,130.10
2018-02-09T02:11:37.023Z,129.47
2018-02-09T02:14:05.319Z,124.77
2018-02-09T02:16:32.893Z,124.97
2018-02-09T02:19:00.423Z,127.77
2018-02-09T02:21:28.729Z,127.53
2018-02-09T02:23:56.448Z,136.03
2018-02-09T02:26:23.974Z,125.63
2018-02-09T02:28:52.287Z,141.90
2018-02-09T02:31:19.848Z,124.53
2018-02-09T02:33:47.383Z,129.37
2018-02-09T02:36:14.943Z,139.13
2018-02-09T02:38:42.467Z,137.53
2018-02-09T02:41:10.029Z,136.67
2018-02-09T02:43:37.570Z,150.07
2018-02-09T02:46:05.161Z,132.00
2018-02-09T02:48:33.463Z,135.23
2018-02-09T02:51:01.016Z,142.93
2018-02-09T02:53:29.316Z,132.10
2018-02-09T02:55:57.651Z,141.73
2018-02-09T02:58:25.193Z,129.17
2018-02-09T03:00:52.756Z,130.83
2018-02-09T03:03:21.049Z,126.27
2018-02-09T03:05:48.602Z,129.00
2018-02-09T03:08:16.888Z,127.63
2018-02-09T03:10:44.451Z,121.83
2018-02-09T03:13:11.996Z,134.10
2018-02-09T03:15:39.551Z,133.50
2018-02-09T03:18:07.069Z,135.97
2018-02-09T03:20:34.636Z,135.03
2018-02-09T03:23:02.172Z,129.37
2018-02-09T03:25:29.732Z,133.87
2018-02-09T03:27:57.259Z,137.47
2018-02-09T03:30:24.814Z,125.80
2018-02-09T03:32:52.341Z,133.23
2018-02-09T03:35:19.895Z,117.60
2018-02-09T03:37:48.187Z,139.40
2018-02-09T03:40:16.512Z,121.77
2018-02-09T03:42:44.044Z,118.13
2018-02-09T03:45:12.363Z,126.77
2018-02-09T03:47:39.881Z,125.13
2018-02-09T03:50:07.444Z,127.90
2018-02-09T03:52:34.970Z,127.60
2018-02-09T03:55:02.540Z,133.83
2018-02-09T03:57:30.060Z,119.20
2018-02-09T03:59:57.611Z,129.17
2018-02-09T04:02:25.169Z,127.60
2018-02-09T04:04:53.460Z,119.47
2018-02-09T04:07:20.995Z,127.97
2018-02-09T04:09:48.540Z,121.73
2018-02-09T04:12:16.832Z,135.60
2018-02-09T04:14:44.387Z,124.17
2018-02-09T04:17:11.900Z,125.73
2018-02-09T04:19:40.228Z,137.93
2018-02-09T04:22:07.753Z,119.93
2018-02-09T04:24:35.312Z,131.23
2018-02-09T04:27:02.849Z,125.10
2018-02-09T04:29:30.405Z,128.97
2018-02-09T04:31:57.932Z,122.17
2018-02-09T04:34:25.491Z,129.43
2018-02-09T04:36:53.019Z,122.90
2018-02-09T04:39:20.580Z,121.97
2018-02-09T04:41:48.895Z,123.80
2018-02-09T04:44:16.428Z,122.93
2018-02-09T04:46:43.987Z,127.70
2018-02-09T04:49:11.516Z,121.03
2018-02-09T04:51:39.078Z,118.67
2018-02-09T04:54:06.610Z,113.70
2018-02-09T04:56:34.171Z,129.10
2018-02-09T04:59:01.745Z,122.33
2018-02-09T05:01:29.308Z,133.37
2018-02-09T05:03:56.899Z,124.43
2018-02-09T05:06:24.447Z,119.30
2018-02-09T05:08:51.962Z,120.30
2018-02-09T05:11:20.291Z,109.70
2018-02-09T05:13:47.816Z,126.47
2018-02-09T05:16:16.131Z,127.20
2018-02-09T05:18:43.656Z,110.13
2018-02-09T05:21:11.211Z,110.03
2018-02-09T05:23:38.733Z,120.17
2018-02-09T05:26:07.077Z,114.27
2018-02-09T05:28:34.629Z,119.77
2018-02-09T05:31:02.192Z,122.20
2018-02-09T05:33:29.727Z,108.50
2018-02-09T05:35:57.284Z,124.70
2018-02-09T05:38:24.807Z,110.63
2018-02-09T05:40:52.365Z,120.43
2018-02-09T05:43:19.884Z,118.03
2018-02-09T05:45:47.440Z,113.00
2018-02-09T05:48:15.054Z,110.67
2018-02-09T05:50:42.610Z,127.80
2018-02-09T05:53:10.144Z,113.77
2018-02-09T05:55:38.471Z,111.37
2018-02-09T05:58:06.002Z,127.23
2018-02-09T06:00:33.563Z,121.97
2018-02-09T06:03:01.083Z,115.87
2018-02-09T06:05:28.653Z,124.90
2018-02-09T06:07:56.176Z,121.17
2018-02-09T06:10:23.731Z,121.27
2018-02-09T06:12:52.016Z,137.43
2018-02-09T06:15:19.567Z,130.97
2018-02-09T06:17:47.087Z,118.07
2018-02-09T06:20:14.653Z,126.00
2018-02-09T06:22:42.179Z,141.87
2018-02-09T06:25:09.740Z,131.40
2018-02-09T06:27:38.116Z,132.87
2018-02-09T06:30:06.444Z,135.37
2018-02-09T06:32:33.976Z,147.20
2018-02-09T06:35:01.548Z,139.30
2018-02-09T06:37:29.072Z,145.90
2018-02-09T06:39:56.635Z,137.03
2018-02-09T06:42:24.180Z,131.53
2018-02-09T06:44:51.736Z,141.73
2018-02-09T06:47:19.336Z,142.97
2018-02-09T06:49:46.894Z,157.53
2018-02-09T06:52:14.435Z,140.13
2018-02-09T06:54:42.009Z,133.97
2018-02-09T06:57:09.536Z,149.13
2018-02-09T06:59:37.094Z,147.17
2018-02-09T07:02:04.622Z,126.93
2018-02-09T07:04:32.188Z,140.97
2018-02-09T07:06:59.770Z,139.33
2018-02-09T07:09:27.331Z,121.33
2018-02-09T07:11:54.877Z,146.87
2018-02-09T07:14:22.446Z,123.53
2018-02-09T07:16:49.981Z,129.70
2018-02-09T07:19:17.535Z,139.77
2018-02-09T07:21:45.068Z,113.10
2018-02-09T07:24:12.631Z,112.53
2018-02-09T07:26:40.200Z,112.80
2018-02-09T07:29:07.806Z,107.10
2018-02-09T07:31:36.109Z,103.03
2018-02-09T07:34:03.645Z,106.60
2018-02-09T07:36:31.204Z,94.90
2018-02-09T07:38:58.762Z,108.30
2018-02-09T07:41:26.324Z,95.07
2018-02-09T07:43:53.861Z,99.77
2018-02-09T07:46:22.194Z,101.07
2018-02-09T07:48:49.716Z,100.70
2018-02-09T07:51:18.059Z,103.30
2018-02-09T07:53:45.581Z,97.13
2018-02-09T07:56:13.905Z,105.50
2018-02-09T07:58:41.441Z,117.00
2018-02-09T08:01:09.773Z,93.80
2018-02-09T08:03:37.861Z,86.40
2018-02-09T08:06:05.418Z,74.30
2018-02-09T08:08:32.955Z,84.53
2018-02-09T08:11:01.287Z,82.20
2018-02-09T08:13:28.833Z,86.03
2018-02-09T08:15:56.414Z,79.70
2018-02-09T08:18:23.946Z,83.03
2018-02-09T08:20:51.526Z,85.23
2018-02-09T08:23:19.085Z,73.63
2018-02-09T08:25:46.661Z,81.67
2018-02-09T08:28:14.196Z,82.07
2018-02-09T08:30:41.760Z,87.13
2018-02-09T08:33:09.296Z,88.13
2018-02-09T08:35:36.903Z,88.10
2018-02-09T08:38:04.428Z,79.43
2018-02-09T08:40:32.904Z,83.90
2018-02-09T08:43:00.443Z,82.67
2018-02-09T08:45:27.987Z,86.47
2018-02-09T08:47:55.523Z,89.70
2018-02-09T08:50:23.108Z,76.67
2018-02-09T08:52:50.629Z,90.03
2018-02-09T08:55:18.184Z,77.00
2018-02-09T08:57:46.470Z,79.47
2018-02-09T09:00:14.114Z,78.30
2018-02-09T09:02:42.464Z,89.43
2018-02-09T09:05:10.779Z,87.13
2018-02-09T09:07:38.302Z,89.87
2018-02-09T09:10:05.855Z,76.83
2018-02-09T09:12:34.149Z,83.23
2018-02-09T09:15:01.726Z,91.90
2018-02-09T09:17:30.065Z,88.67
2018-02-09T09:19:57.643Z,86.10
2018-02-09T09:22:26.007Z,82.20
2018-02-09T09:24:53.572Z,82.90
2018-02-09T09:27:21.098Z,83.97
2018-02-09T09:29:48.657Z,89.73
2018-02-09T09:32:16.215Z,83.53
2018-02-09T09:34:44.787Z,78.60
2018-02-09T09:37:12.312Z,82.00
2018-02-09T09:39:39.903Z,83.77
2018-02-09T09:42:07.466Z,88.20
2018-02-09T09:44:35.024Z,85.90
2018-02-09T09:47:02.556Z,85.23
2018-02-09T09:49:30.116Z,85.77
2018-02-09T09:51:57.639Z,79.00
2018-02-09T09:54:25.190Z,82.03
2018-02-09T09:56:52.771Z,86.30
2018-02-09T09:59:20.336Z,89.17
2018-02-09T10:01:47.864Z,80.77
2018-02-09T10:04:16.179Z,79.73
2018-02-09T10:06:43.724Z,85.83
2018-02-09T10:09:12.046Z,81.37
2018-02-09T10:11:39.560Z,85.50
2018-02-09T10:14:07.132Z,77.90
2018-02-09T10:16:34.660Z,75.97
2018-02-09T10:19:02.228Z,85.63
2018-02-09T10:21:29.897Z,79.73
2018-02-09T10:23:57.612Z,82.93
2018-02-09T10:26:25.146Z,90.27
2018-02-09T10:28:52.687Z,82.07
2018-02-09T10:31:20.239Z,83.33
2018-02-09T10:33:47.803Z,83.03
2018-02-09T10:36:15.340Z,89.00
2018-02-09T10:38:44.133Z,86.30
2018-02-09T10:41:11.747Z,85.80
2018-02-09T10:43:39.333Z,87.97
2018-02-09T10:46:06.892Z,83.10
2018-02-09T10:48:34.435Z,86.40
2018-02-09T10:51:01.968Z,83.50
2018-02-09T10:53:30.299Z,76.27
2018-02-09T10:55:57.828Z,84.13
2018-02-09T10:58:25.388Z,84.90
2018-02-09T11:00:58.740Z,75.73
2018-02-09T11:03:26.364Z,82.03
2018-02-09T11:05:53.919Z,82.23
2018-02-09T11:08:21.525Z,80.03
2018-02-09T11:10:49.149Z,84.80
2018-02-09T11:13:16.711Z,84.70
2018-02-09T11:15:44.248Z,81.37
2018-02-09T11:18:11.813Z,80.90
2018-02-09T11:20:39.347Z,85.37
2018-02-09T11:23:06.908Z,78.77
2018-02-09T11:25:34.439Z,89.93
2018-02-09T11:28:01.997Z,84.80
2018-02-09T11:30:29.524Z,86.03
2018-02-09T11:32:57.104Z,92.03
2018-02-09T11:35:24.631Z,91.07
2018-02-09T11:37:52.994Z,87.20
2018-02-09T11:40:20.528Z,85.50
2018-02-09T11:42:48.080Z,76.60
2018-02-09T11:45:15.625Z,81.80
2018-02-09T11:47:43.184Z,77.10
2018-02-09T11:50:10.713Z,79.00
2018-02-09T11:52:38.265Z,87.83
2018-02-09T11:55:06.592Z,74.60
2018-02-09T11:57:34.150Z,81.07
2018-02-09T12:00:01.664Z,85.97
2018-02-09T12:02:29.237Z,80.43
2018-02-09T12:04:56.978Z,75.87
2018-02-09T12:07:24.518Z,75.17
2018-02-09T12:09:52.842Z,77.03
2018-02-09T12:12:20.389Z,67.50
2018-02-09T12:14:48.709Z,74.13
2018-02-09T12:17:16.246Z,68.80
2018-02-09T12:19:43.889Z,71.83
2018-02-09T12:22:11.412Z,58.37
2018-02-09T12:24:38.968Z,66.30
2018-02-09T12:27:07.306Z,51.90
2018-02-09T12:29:34.829Z,55.17
2018-02-09T12:32:02.352Z,53.97
2018-02-09T12:34:29.896Z,58.17
2018-02-09T12:36:57.431Z,59.63
2018-02-09T12:39:25.771Z,50.97
2018-02-09T12:41:53.305Z,56.50
2018-02-09T12:44:21.628Z,50.10
2018-02-09T12:46:49.168Z,52.77
2018-02-09T12:49:16.754Z,55.00
2018-02-09T12:51:44.331Z,55.73
2018-02-09T12:54:11.903Z,56.93
2018-02-09T12:56:39.452Z,56.47
2018-02-09T12:59:07.837Z,60.77
2018-02-09T13:01:35.384Z,57.80
2018-02-09T13:04:02.966Z,64.13
2018-02-09T13:06:30.528Z,56.30
2018-02-09T13:08:58.080Z,55.87
2018-02-09T13:11:25.626Z,53.30
2018-02-09T13:13:53.182Z,53.73
2018-02-09T13:16:21.473Z,52.53
2018-02-09T13:18:53.561Z,46.07
2018-02-09T13:21:21.849Z,53.72
2018-02-09T13:24:01.364Z,48.80
2018-02-09T13:26:29.035Z,52.83
2018-02-09T13:28:58.440Z,48.50
2018-02-09T13:31:25.992Z,49.87
2018-02-09T13:33:53.669Z,45.37
2018-02-09T13:36:33.143Z,39.87
2018-02-09T13:39:00.744Z,51.10
2018-02-09T13:41:29.134Z,36.60
2018-02-09T13:43:57.162Z,41.30
2018-02-09T13:46:24.716Z,38.03
2018-02-09T13:48:53.258Z,37.20
2018-02-09T13:51:21.564Z,36.93
2018-02-09T13:53:52.358Z,36.03
2018-02-09T13:56:19.911Z,35.93
2018-02-09T13:58:48.227Z,34.07
2018-02-09T14:01:15.840Z,31.07
2018-02-09T14:03:43.584Z,38.33
2018-02-09T14:06:11.212Z,35.17
2018-02-09T14:08:38.768Z,36.90
2018-02-09T14:11:06.292Z,36.73
2018-02-09T14:13:33.851Z,34.20
2018-02-09T14:16:01.405Z,36.63
2018-02-09T14:18:28.956Z,40.90
2018-02-09T14:20:56.519Z,37.80
2018-02-09T14:23:24.084Z,38.63
2018-02-09T14:25:51.620Z,44.20
2018-02-09T14:28:19.188Z,35.73
2018-02-09T14:30:46.764Z,34.53
2018-02-09T14:33:14.316Z,36.00
2018-02-09T14:35:41.844Z,34.60
2018-02-09T14:38:15.677Z,39.43
2018-02-09T14:40:43.218Z,34.00
2018-02-09T14:43:10.826Z,39.23
2018-02-09T14:45:38.432Z,36.27
2018-02-09T14:48:06.724Z,34.50
2018-02-09T14:50:34.320Z,35.50
2018-02-09T14:53:01.843Z,34.73
2018-02-09T14:55:29.426Z,31.30
2018-02-09T14:57:56.983Z,31.70
2018-02-09T15:00:24.667Z,40.67
2018-02-09T15:02:52.188Z,34.50
2018-02-09T15:05:19.713Z,38.10
2018-02-09T15:07:47.335Z,30.83
2018-02-09T15:10:14.896Z,34.77
2018-02-09T15:12:42.547Z,39.07
2018-02-09T15:15:10.040Z,30.73
2018-02-09T15:17:38.380Z,35.27
2018-02-09T15:20:05.899Z,39.83
2018-02-09T15:22:33.474Z,39.97
2018-02-09T15:25:01.008Z,35.03
2018-02-09T15:27:28.531Z,38.20
2018-02-09T15:29:56.565Z,37.27
2018-02-09T15:32:24.097Z,39.67
2018-02-09T15:34:51.663Z,33.50
2018-02-09T15:37:19.176Z,40.50
2018-02-09T15:39:46.740Z,35.10
2018-02-09T15:42:14.284Z,34.50
2018-02-09T15:44:41.848Z,42.80
2018-02-09T15:47:09.375Z,36.90
2018-02-09T15:49:36.936Z,36.90
2018-02-09T15:52:04.479Z,29.87
2018-02-09T15:54:32.031Z,37.70
2018-02-09T15:56:59.552Z,39.03
2018-02-09T15:59:27.096Z,34.90
2018-02-09T16:01:55.387Z,36.60
2018-02-09T16:04:22.932Z,34.17
2018-02-09T16:06:50.451Z,36.73
2018-02-09T16:09:18.007Z,33.43
2018-02-09T16:11:45.529Z,33.43
2018-02-09T16:14:13.870Z,34.13
2018-02-09T16:16:41.390Z,39.97
2018-02-09T16:19:09.712Z,39.73
2018-02-09T16:21:37.236Z,36.90
2018-02-09T16:24:04.800Z,34.73
2018-02-09T16:26:32.325Z,39.20
2018-02-09T16:28:59.888Z,37.27
2018-02-09T16:31:27.411Z,34.00
2018-02-09T16:33:54.988Z,34.30
2018-02-09T16:36:22.544Z,33.63
2018-02-09T16:38:50.108Z,48.57
2018-02-09T16:41:17.686Z,43.10
2018-02-09T16:43:45.244Z,46.10
2018-02-09T16:46:12.779Z,37.53
2018-02-09T16:48:40.340Z,44.43
2018-02-09T16:51:08.649Z,41.13
2018-02-09T16:53:36.975Z,48.37
2018-02-09T16:56:04.502Z,37.80
2018-02-09T16:58:32.880Z,34.87
2018-02-09T17:01:00.411Z,47.00
2018-02-09T17:03:27.963Z,45.27
2018-02-09T17:05:55.489Z,40.47
2018-02-09T17:08:23.051Z,43.47
2018-02-09T17:10:50.580Z,38.90
2018-02-09T17:13:18.145Z,37.70
2018-02-09T17:15:45.767Z,34.63
2018-02-09T17:18:13.331Z,38.67
2018-02-09T17:20:40.856Z,42.53
2018-02-09T17:23:08.435Z,37.90
2018-02-09T17:25:35.988Z,40.90
2018-02-09T17:28:03.556Z,37.80
2018-02-09T17:30:31.853Z,31.33
2018-02-09T17:32:59.435Z,37.93
2018-02-09T17:35:27.800Z,35.80
2018-02-09T17:37:55.436Z,30.70
2018-02-09T17:40:22.966Z,33.90
2018-02-09T17:42:51.303Z,34.30
2018-02-09T17:45:18.832Z,34.03
2018-02-09T17:47:47.204Z,32.73
2018-02-09T17:50:14.717Z,37.63
2018-02-09T17:52:42.276Z,35.93
2018-02-09T17:55:09.819Z,31.43
2018-02-09T17:57:37.384Z,30.90
2018-02-09T18:00:04.929Z,24.73
2018-02-09T18:02:32.490Z,31.60
2018-02-09T18:05:00.001Z,27.77
2018-02-09T18:07:27.562Z,28.73
2018-02-09T18:09:55.093Z,24.63
2018-02-09T18:12:22.637Z,27.20
2018-02-09T18:14:50.165Z,23.87
2018-02-09T18:17:17.724Z,25.90
2018-02-09T18:19:45.252Z,24.10
2018-02-09T18:22:13.597Z,28.43
2018-02-09T18:24:41.116Z,21.90
2018-02-09T18:27:08.671Z,21.13
2018-02-09T18:29:36.204Z,25.27
2018-02-09T18:32:04.583Z,19.63
2018-02-09T18:34:32.108Z,22.47
2018-02-09T18:36:59.656Z,27.33
2018-02-09T18:39:27.313Z,24.30
2018-02-09T18:41:54.876Z,23.23
2018-02-09T18:44:22.396Z,26.60
2018-02-09T18:46:49.982Z,27.27
2018-02-09T18:49:17.504Z,35.00
2018-02-09T18:51:45.052Z,25.57
2018-02-09T18:54:12.579Z,34.73
2018-02-09T18:56:40.135Z,29.53
2018-02-09T18:59:07.716Z,29.90
2018-02-09T19:01:35.272Z,34.30
2018-02-09T19:04:02.801Z,33.10
2018-02-09T19:06:31.122Z,32.45
2018-02-09T19:08:58.677Z,34.47
2018-02-09T19:11:26.279Z,40.20
2018-02-09T19:13:53.806Z,38.23
2018-02-09T19:16:22.121Z,41.43
2018-02-09T19:18:49.671Z,37.00
2018-02-09T19:21:17.247Z,40.37
2018-02-09T19:23:45.535Z,40.73
2018-02-09T19:26:13.883Z,43.53
2018-02-09T19:28:41.436Z,51.50
2018-02-09T19:31:09.012Z,42.23
2018-02-09T19:33:36.632Z,45.25
2018-02-09T19:36:04.218Z,44.10
2018-02-09T19:38:31.864Z,40.37
2018-02-09T19:40:59.456Z,42.57
2018-02-09T19:43:27.000Z,43.90
2018-02-09T19:45:54.576Z,41.43
2018-02-09T19:48:22.104Z,41.27
2018-02-09T19:50:49.720Z,47.90
2018-02-09T19:53:17.248Z,51.03
2018-02-09T19:55:44.819Z,41.80
2018-02-09T19:58:12.347Z,39.60
2018-02-09T20:00:39.977Z,46.30
2018-02-09T20:03:07.522Z,43.23
2018-02-09T20:05:35.808Z,43.40
2018-02-09T20:08:03.363Z,39.27
2018-02-09T20:10:30.887Z,43.77
2018-02-09T20:12:59.256Z,56.40
2018-02-09T20:15:26.808Z,46.47
2018-02-09T20:17:54.376Z,54.60
2018-02-09T20:20:22.702Z,48.77
2018-02-09T20:22:50.345Z,47.07
2018-02-09T20:25:18.640Z,50.77
2018-02-09T20:27:46.962Z,45.57
2018-02-09T20:30:14.538Z,44.17
2018-02-09T20:32:42.059Z,46.63
2018-02-09T20:35:10.469Z,48.17
2018-02-09T20:37:37.992Z,43.90
2018-02-09T20:40:05.586Z,40.53
2018-02-09T20:42:34.027Z,41.07
2018-02-09T20:45:01.593Z,42.43
2018-02-09T20:47:29.121Z,51.50
2018-02-09T20:49:56.647Z,39.90
2018-02-09T20:52:24.275Z,55.13
2018-02-09T20:54:52.616Z,42.23
2018-02-09T20:57:20.200Z,49.33
2018-02-09T20:59:47.727Z,36.93
2018-02-09T21:02:16.095Z,42.37
2018-02-09T21:04:44.490Z,47.83
2018-02-09T21:07:12.033Z,45.43
2018-02-09T21:09:39.553Z,51.87
2018-02-09T21:12:07.879Z,46.47
2018-02-09T21:14:35.423Z,44.30
2018-02-09T21:17:02.977Z,51.73
2018-02-09T21:19:30.492Z,48.50
2018-02-09T21:21:58.057Z,43.13
2018-02-09T21:24:25.615Z,50.37
2018-02-09T21:26:53.940Z,42.13
2018-02-09T21:29:21.476Z,42.20
2018-02-09T21:31:49.801Z,40.70
2018-02-09T21:34:17.848Z,45.90
2018-02-09T21:36:45.392Z,42.67
2018-02-09T21:39:12.916Z,49.63
2018-02-09T21:41:40.464Z,42.50
2018-02-09T21:44:08.758Z,42.00
2018-02-09T21:46:37.080Z,41.17
2018-02-09T21:49:04.604Z,45.83
2018-02-09T21:51:32.924Z,49.37
2018-02-09T21:54:00.445Z,51.47
2018-02-09T21:56:28.782Z,48.23
2018-02-09T21:58:56.305Z,45.47
2018-02-09T22:01:23.852Z,52.47
2018-02-09T22:03:51.383Z,49.20
2018-02-09T22:06:19.695Z,56.40
2018-02-09T22:08:47.265Z,50.77
2018-02-09T22:11:14.832Z,54.03
2018-02-09T22:13:42.368Z,49.43
2018-02-09T22:16:09.923Z,45.97
2018-02-09T22:18:37.468Z,45.37
2018-02-09T22:21:05.041Z,48.13
2018-02-09T22:23:32.558Z,51.10
2018-02-09T22:26:00.124Z,56.07
2018-02-09T22:28:27.661Z,53.37
2018-02-09T22:30:55.226Z,48.27
2018-02-09T22:33:22.751Z,49.53
2018-02-09T22:35:50.325Z,55.63
2018-02-09T22:38:17.857Z,48.87
2018-02-09T22:40:45.416Z,44.10
2018-02-09T22:43:13.704Z,43.93
2018-02-09T22:45:41.267Z,52.80
2018-02-09T22:48:08.788Z,54.53
2018-02-09T22:50:36.363Z,48.20
2018-02-09T22:53:03.906Z,54.83
2018-02-09T22:55:31.464Z,45.00
2018-02-09T22:57:58.992Z,50.43
2018-02-09T23:00:26.545Z,44.73
2018-02-09T23:02:54.104Z,49.10
2018-02-09T23:05:22.013Z,51.37
2018-02-09T23:07:50.615Z,50.47
2018-02-09T23:10:18.191Z,50.27
2018-02-09T23:12:45.723Z,50.83
2018-02-09T23:15:13.278Z,54.43
2018-02-09T23:17:40.833Z,49.10
2018-02-09T23:20:08.393Z,53.37
2018-02-09T23:22:36.692Z,49.70
2018-02-09T23:25:06.258Z,49.13
2018-02-09T23:27:33.784Z,52.97
2018-02-09T23:30:01.335Z,52.33
2018-02-09T23:32:28.873Z,48.00
2018-02-09T23:34:56.430Z,48.83
2018-02-09T23:37:23.955Z,50.40
2018-02-09T23:39:51.518Z,48.90
2018-02-09T23:42:19.035Z,53.03
2018-02-09T23:44:46.583Z,46.60
2018-02-09T23:47:14.155Z,42.50
2018-02-09T23:49:41.703Z,51.70
2018-02-09T23:52:09.223Z,56.07
2018-02-09T23:54:36.776Z,55.37
2018-02-09T23:57:04.296Z,47.03
2018-02-09T23:59:31.860Z,45.90
